createdAt,value
2023-01-03T00:02:10.929Z,15.70
2023-01-03T00:04:38.251Z,16.50
2023-01-03T00:07:05.605Z,17.35
2023-01-03T00:09:32.810Z,19.90
2023-01-03T00:12:18.814Z,20.13
2023-01-03T00:14:46.143Z,15.20
2023-01-03T00:17:13.518Z,17.20
2023-01-03T00:19:44.796Z,14.63
2023-01-03T00:22:13.205Z,19.48
2023-01-03T00:24:41.760Z,17.80
2023-01-03T00:27:09.106Z,16.35
2023-01-03T00:29:36.832Z,19.38
2023-01-03T00:32:04.328Z,15.70
2023-01-03T00:34:31.558Z,17.00
2023-01-03T00:36:59.423Z,16.00
2023-01-03T00:39:26.713Z,19.30
2023-01-03T00:41:54.298Z,18.58
2023-01-03T00:44:21.527Z,18.60
2023-01-03T00:46:48.842Z,15.35
2023-01-03T00:49:16.080Z,16.63
2023-01-03T00:51:43.643Z,16.33
2023-01-03T00:54:12.974Z,16.88
2023-01-03T00:56:41.673Z,19.63
2023-01-03T00:59:09.311Z,19.98
2023-01-03T01:01:46.649Z,15.85
2023-01-03T01:04:19.804Z,16.05
2023-01-03T01:06:51.852Z,16.73
2023-01-03T01:09:21.025Z,16.63
2023-01-03T01:11:48.540Z,16.38
2023-01-03T01:14:22.180Z,15.18
2023-01-03T01:16:51.825Z,16.33
2023-01-03T01:19:19.841Z,17.85
2023-01-03T01:21:47.467Z,13.75
2023-01-03T01:24:18.064Z,16.27
2023-01-03T01:26:45.596Z,15.40
2023-01-03T01:29:13.465Z,16.23
2023-01-03T01:31:41.193Z,17.23
2023-01-03T01:34:09.071Z,16.15
2023-01-03T01:36:37.932Z,14.00
2023-01-03T01:39:07.165Z,12.93
2023-01-03T01:41:54.663Z,14.50
2023-01-03T01:44:40.685Z,14.98
2023-01-03T01:47:14.278Z,17.70
2023-01-03T01:49:42.129Z,21.05
2023-01-03T01:52:10.511Z,22.77
2023-01-03T01:54:38.198Z,20.55
2023-01-03T01:57:05.490Z,15.05
2023-01-03T01:59:32.986Z,23.27
2023-01-03T02:02:00.288Z,22.40
2023-01-03T02:04:31.000Z,19.17
2023-01-03T02:06:58.617Z,17.67
2023-01-03T02:09:25.820Z,20.30
2023-01-03T02:12:21.426Z,21.70
2023-01-03T02:14:54.032Z,15.95
2023-01-03T02:17:47.337Z,21.70
2023-01-03T02:20:20.961Z,24.67
2023-01-03T02:23:10.659Z,19.85
2023-01-03T02:25:40.971Z,18.95
2023-01-03T02:28:08.214Z,20.20
2023-01-03T02:30:44.773Z,22.08
2023-01-03T02:33:19.214Z,21.33
2023-01-03T02:36:09.912Z,21.52
2023-01-03T02:39:00.478Z,17.67
2023-01-03T02:41:47.125Z,20.55
2023-01-03T02:44:14.346Z,21.67
2023-01-03T02:46:48.168Z,24.67
2023-01-03T02:49:24.461Z,20.52
2023-01-03T02:51:54.437Z,17.35
2023-01-03T02:54:28.229Z,21.02
2023-01-03T02:57:11.311Z,22.45
2023-01-03T02:59:42.439Z,20.52
2023-01-03T03:02:11.200Z,22.25
2023-01-03T03:04:39.145Z,21.55
2023-01-03T03:07:14.549Z,25.90
2023-01-03T03:10:00.423Z,19.52
2023-01-03T03:12:47.914Z,22.60
2023-01-03T03:15:16.900Z,22.08
2023-01-03T03:17:45.011Z,27.35
2023-01-03T03:20:34.580Z,28.73
2023-01-03T03:23:23.789Z,35.22
2023-01-03T03:25:51.020Z,120.00
2023-01-03T03:28:35.665Z,152.23
2023-01-03T03:31:02.935Z,119.07
2023-01-03T03:33:33.986Z,176.30
2023-01-03T03:36:06.385Z,172.40
2023-01-03T03:38:41.476Z,91.80
2023-01-03T03:41:51.405Z,127.43
2023-01-03T03:45:03.214Z,122.82
2023-01-03T03:47:30.463Z,132.40
2023-01-03T03:50:02.533Z,127.28
2023-01-03T03:52:30.962Z,116.07
2023-01-03T03:55:00.185Z,101.15
2023-01-03T03:57:32.566Z,98.45
2023-01-03T04:00:01.980Z,94.45
2023-01-03T04:04:59.421Z,63.97
2023-01-03T04:07:26.736Z,104.22
2023-01-03T04:09:54.038Z,101.88
2023-01-03T04:12:21.293Z,78.28
2023-01-03T04:14:48.549Z,73.70
2023-01-03T04:17:15.772Z,92.13
2023-01-03T04:19:43.015Z,79.95
2023-01-03T04:22:10.305Z,67.45
2023-01-03T04:24:37.525Z,76.47
2023-01-03T04:27:04.799Z,59.60
2023-01-03T04:29:38.817Z,56.55
2023-01-03T04:32:06.843Z,63.15
2023-01-03T04:34:34.203Z,74.55
2023-01-03T04:37:01.447Z,75.60
2023-01-03T04:39:28.734Z,67.93
2023-01-03T04:41:55.987Z,53.85
2023-01-03T04:44:23.203Z,55.35
2023-01-03T04:46:53.030Z,77.20
2023-01-03T04:49:20.843Z,66.85
2023-01-03T04:51:48.153Z,89.63
2023-01-03T04:54:15.387Z,76.65
2023-01-03T04:56:42.649Z,84.72
2023-01-03T04:59:09.853Z,79.22
2023-01-03T05:01:37.168Z,77.53
2023-01-03T05:04:05.066Z,77.88
2023-01-03T05:06:32.380Z,104.88
2023-01-03T05:08:59.543Z,88.75
2023-01-03T05:11:26.843Z,93.82
2023-01-03T05:13:54.123Z,74.07
2023-01-03T05:16:21.391Z,98.28
2023-01-03T05:18:51.229Z,115.28
2023-01-03T05:21:38.045Z,106.45
2023-01-03T05:24:24.205Z,73.97
2023-01-03T05:26:52.300Z,54.55
2023-01-03T05:29:20.684Z,51.90
2023-01-03T05:31:48.380Z,55.58
2023-01-03T05:34:15.985Z,46.58
2023-01-03T05:36:43.267Z,51.60
2023-01-03T05:39:10.598Z,59.17
2023-01-03T05:41:56.578Z,52.72
2023-01-03T05:44:23.863Z,58.25
2023-01-03T05:46:51.130Z,52.20
2023-01-03T05:49:18.615Z,53.35
2023-01-03T05:51:45.840Z,55.33
2023-01-03T05:54:16.954Z,49.85
2023-01-03T05:56:44.489Z,52.80
2023-01-03T05:59:11.997Z,53.33
2023-01-03T06:01:39.522Z,55.15
2023-01-03T06:04:07.565Z,50.13
2023-01-03T06:06:34.855Z,54.75
2023-01-03T06:09:02.092Z,55.65
2023-01-03T06:11:29.301Z,54.08
2023-01-03T06:13:56.575Z,54.47
2023-01-03T06:16:43.328Z,58.75
2023-01-03T06:19:10.550Z,53.28
2023-01-03T06:21:38.269Z,52.40
2023-01-03T06:24:05.783Z,59.05
2023-01-03T06:26:33.117Z,59.95
2023-01-03T06:29:00.534Z,64.55
2023-01-03T06:31:28.282Z,60.47
2023-01-03T06:33:55.617Z,61.70
2023-01-03T06:36:23.951Z,64.22
2023-01-03T06:38:51.215Z,60.92
2023-01-03T06:41:18.442Z,62.05
2023-01-03T06:43:46.049Z,64.05
2023-01-03T06:46:32.942Z,64.18
2023-01-03T06:49:19.373Z,71.88
2023-01-03T06:52:07.554Z,65.63
2023-01-03T06:54:36.108Z,74.97
2023-01-03T06:57:04.128Z,74.63
2023-01-03T06:59:31.380Z,69.93
2023-01-03T07:01:58.831Z,73.32
2023-01-03T07:04:27.042Z,67.38
2023-01-03T07:06:54.467Z,61.65
2023-01-03T07:09:21.829Z,63.75
2023-01-03T07:11:49.113Z,59.95
2023-01-03T07:14:17.505Z,70.90
2023-01-03T07:16:48.679Z,55.10
2023-01-03T07:19:17.638Z,76.85
2023-01-03T07:21:45.195Z,67.00
2023-01-03T07:24:13.249Z,71.72
2023-01-03T07:26:40.793Z,66.90
2023-01-03T07:29:08.773Z,70.20
2023-01-03T07:31:36.136Z,70.53
2023-01-03T07:34:03.394Z,68.53
2023-01-03T07:36:30.598Z,69.47
2023-01-03T07:38:57.871Z,61.60
2023-01-03T07:41:45.033Z,66.85
2023-01-03T07:44:12.480Z,70.85
2023-01-03T07:46:39.810Z,68.25
2023-01-03T07:49:11.465Z,69.20
2023-01-03T07:51:39.952Z,62.83
2023-01-03T07:54:07.959Z,69.25
2023-01-03T07:56:35.486Z,67.95
2023-01-03T07:59:02.838Z,63.45
2023-01-03T08:01:30.687Z,71.25
2023-01-03T08:03:58.292Z,63.28
2023-01-03T08:06:26.010Z,63.03
2023-01-03T08:09:12.145Z,60.28
2023-01-03T08:11:58.349Z,63.30
2023-01-03T08:14:27.277Z,66.70
2023-01-03T08:16:55.596Z,58.53
2023-01-03T08:19:23.407Z,57.58
2023-01-03T08:21:50.635Z,61.13
2023-01-03T08:24:17.950Z,57.72
2023-01-03T08:26:45.207Z,65.75
2023-01-03T08:29:12.574Z,62.53
2023-01-03T08:31:43.243Z,55.13
2023-01-03T08:34:16.957Z,46.05
2023-01-03T08:36:50.227Z,53.42
2023-01-03T08:39:18.999Z,52.40
2023-01-03T08:41:47.896Z,53.03
2023-01-03T08:44:15.563Z,53.40
2023-01-03T08:46:46.675Z,57.60
2023-01-03T08:49:14.220Z,54.72
2023-01-03T08:51:41.452Z,63.35
2023-01-03T08:54:08.721Z,54.92
2023-01-03T08:56:36.180Z,56.13
2023-01-03T08:59:03.445Z,61.78
2023-01-03T09:01:31.176Z,55.50
2023-01-03T09:03:58.784Z,60.83
2023-01-03T09:06:26.101Z,57.35
2023-01-03T09:08:53.397Z,60.58
2023-01-03T09:11:20.794Z,56.95
2023-01-03T09:13:48.014Z,62.60
2023-01-03T09:16:16.880Z,56.22
2023-01-03T09:18:44.443Z,45.28
2023-01-03T09:21:11.683Z,61.55
2023-01-03T09:23:39.018Z,64.65
2023-01-03T09:26:06.717Z,67.93
2023-01-03T09:28:34.722Z,71.95
2023-01-03T09:31:02.902Z,63.13
2023-01-03T09:33:30.692Z,68.97
2023-01-03T09:35:58.378Z,76.38
2023-01-03T09:38:25.659Z,74.25
2023-01-03T09:41:00.976Z,72.13
2023-01-03T09:43:37.151Z,81.97
2023-01-03T09:46:06.016Z,82.63
2023-01-03T09:48:34.788Z,62.85
2023-01-03T09:51:22.698Z,72.90
2023-01-03T09:54:07.981Z,79.25
2023-01-03T09:56:54.043Z,84.50
2023-01-03T09:59:40.261Z,84.97
2023-01-03T10:02:49.604Z,78.93
2023-01-03T10:05:37.172Z,78.15
2023-01-03T10:08:13.295Z,91.00
2023-01-03T10:10:53.240Z,94.78
2023-01-03T10:13:25.644Z,97.95
2023-01-03T10:15:59.578Z,87.68
2023-01-03T10:18:37.975Z,100.20
2023-01-03T10:21:10.047Z,95.93
2023-01-03T10:23:37.393Z,98.55
2023-01-03T10:26:09.714Z,101.25
2023-01-03T10:28:38.529Z,90.68
2023-01-03T10:31:14.808Z,96.93
2023-01-03T10:33:45.422Z,97.78
2023-01-03T10:36:13.401Z,88.13
2023-01-03T10:38:47.789Z,100.22
2023-01-03T10:41:21.863Z,93.72
2023-01-03T10:43:59.352Z,104.78
2023-01-03T10:46:28.279Z,109.28
2023-01-03T10:51:49.587Z,111.47
2023-01-03T10:54:19.645Z,102.63
2023-01-03T10:56:47.466Z,85.82
2023-01-03T10:59:17.772Z,91.97
2023-01-03T11:02:16.649Z,90.93
2023-01-03T11:04:44.647Z,96.30
2023-01-03T11:07:12.250Z,95.60
2023-01-03T11:09:53.776Z,100.35
2023-01-03T11:12:28.081Z,90.88
2023-01-03T11:14:56.320Z,87.03
2023-01-03T11:17:24.868Z,84.90
2023-01-03T11:19:53.679Z,84.50
2023-01-03T11:22:20.972Z,96.50
2023-01-03T11:24:56.195Z,65.72
2023-01-03T11:27:27.258Z,85.72
2023-01-03T11:30:13.132Z,85.75
2023-01-03T11:32:43.521Z,77.75
2023-01-03T11:35:24.852Z,78.45
2023-01-03T11:38:01.802Z,84.07
2023-01-03T11:40:44.194Z,87.45
2023-01-03T11:43:17.431Z,71.68
2023-01-03T11:45:48.761Z,76.25
2023-01-03T11:48:31.300Z,82.45
2023-01-03T11:51:12.079Z,82.47
2023-01-03T11:53:49.564Z,87.45
2023-01-03T11:56:43.470Z,70.47
2023-01-03T11:59:29.084Z,71.95
2023-01-03T12:02:15.344Z,73.13
2023-01-03T12:04:45.806Z,70.18
2023-01-03T12:07:49.093Z,70.38
2023-01-03T12:10:16.451Z,72.20
2023-01-03T12:12:51.656Z,68.38
2023-01-03T12:15:21.775Z,72.65
2023-01-03T12:18:09.643Z,70.38
2023-01-03T12:20:38.060Z,54.67
2023-01-03T12:23:12.766Z,65.63
2023-01-03T12:25:43.167Z,55.60
2023-01-03T12:28:10.455Z,62.83
2023-01-03T12:30:50.195Z,62.28
2023-01-03T12:33:25.406Z,54.83
2023-01-03T12:35:59.551Z,52.63
2023-01-03T12:38:30.070Z,56.30
2023-01-03T12:41:17.631Z,57.45
2023-01-03T12:43:48.008Z,58.58
2023-01-03T12:46:19.409Z,46.78
2023-01-03T12:49:05.570Z,46.13
2023-01-03T12:51:33.005Z,47.42
2023-01-03T12:54:13.799Z,44.75
2023-01-03T12:57:04.412Z,56.08
2023-01-03T12:59:43.911Z,46.13
2023-01-03T13:02:14.292Z,50.90
2023-01-03T13:04:42.124Z,48.90
2023-01-03T13:07:18.595Z,43.53
2023-01-03T13:09:49.746Z,49.70
2023-01-03T13:12:19.466Z,45.15
2023-01-03T13:14:57.041Z,43.03
2023-01-03T13:17:28.174Z,46.17
2023-01-03T13:20:00.005Z,49.63
2023-01-03T13:22:33.882Z,44.60
2023-01-03T13:25:30.660Z,42.70
2023-01-03T13:27:58.938Z,45.58
2023-01-03T13:30:30.659Z,40.60
2023-01-03T13:33:03.853Z,48.33
2023-01-03T13:35:36.159Z,34.10
2023-01-03T13:38:24.459Z,43.22
2023-01-03T13:41:17.203Z,36.38
2023-01-03T13:43:40.908Z,46.80
2023-01-03T13:46:20.342Z,37.60
2023-01-03T13:48:53.950Z,41.47
2023-01-03T13:51:24.143Z,35.08
2023-01-03T13:54:10.045Z,32.22
2023-01-03T13:56:43.505Z,33.85
2023-01-03T13:59:19.473Z,34.10
2023-01-03T14:01:46.815Z,33.75
2023-01-03T14:04:32.748Z,27.63
2023-01-03T14:07:11.404Z,34.72
2023-01-03T14:09:57.102Z,26.17
2023-01-03T14:12:24.407Z,29.95
2023-01-03T14:14:58.569Z,29.50
2023-01-03T14:17:31.704Z,30.13
2023-01-03T14:20:04.315Z,27.85
2023-01-03T14:22:39.713Z,31.13
2023-01-03T14:25:07.778Z,28.52
2023-01-03T14:27:41.336Z,29.15
2023-01-03T14:30:24.919Z,28.20
2023-01-03T14:32:52.294Z,30.48
2023-01-03T14:35:42.697Z,26.48
2023-01-03T14:38:23.191Z,31.77
2023-01-03T14:40:51.484Z,24.80
2023-01-03T14:43:21.732Z,26.27
2023-01-03T14:45:57.049Z,29.83
2023-01-03T14:48:25.248Z,25.65
2023-01-03T14:50:53.147Z,26.45
2023-01-03T14:53:20.656Z,26.23
2023-01-03T14:55:55.313Z,26.00
2023-01-03T14:58:33.375Z,25.38
2023-01-03T15:01:03.045Z,23.75
2023-01-03T15:03:48.689Z,20.45
2023-01-03T15:06:17.409Z,27.65
2023-01-03T15:08:47.263Z,26.85
2023-01-03T15:11:15.009Z,28.27
2023-01-03T15:13:42.334Z,23.05
2023-01-03T15:16:20.269Z,22.98
2023-01-03T15:18:47.695Z,19.67
2023-01-03T15:21:18.827Z,22.90
2023-01-03T15:23:47.378Z,24.42
2023-01-03T15:26:23.921Z,23.33
2023-01-03T15:28:51.222Z,23.33
2023-01-03T15:31:24.515Z,19.77
2023-01-03T15:34:12.848Z,34.95
2023-01-03T15:36:40.691Z,21.88
2023-01-03T15:39:16.442Z,21.77
2023-01-03T15:44:50.024Z,18.90
2023-01-03T15:47:18.654Z,20.38
2023-01-03T15:49:47.775Z,22.42
2023-01-03T15:52:15.724Z,19.55
2023-01-03T15:54:43.993Z,19.70
2023-01-03T15:57:22.117Z,22.65
2023-01-03T15:59:52.515Z,18.17
2023-01-03T16:02:20.638Z,19.10
2023-01-03T16:04:48.333Z,18.08
2023-01-03T16:07:15.810Z,26.65
2023-01-03T16:09:43.133Z,19.50
2023-01-03T16:12:21.346Z,18.48
2023-01-03T16:14:53.067Z,22.08
2023-01-03T16:17:25.425Z,17.60
2023-01-03T16:19:53.870Z,28.65
2023-01-03T16:22:34.378Z,19.63
2023-01-03T16:25:02.517Z,15.70
2023-01-03T16:27:29.816Z,16.13
2023-01-03T16:29:57.166Z,23.85
2023-01-03T16:32:27.158Z,18.05
2023-01-03T16:35:01.609Z,15.05
2023-01-03T16:37:29.094Z,18.58
2023-01-03T16:39:56.749Z,22.60
2023-01-03T16:42:27.715Z,21.90
2023-01-03T16:44:55.730Z,16.75
2023-01-03T16:47:33.240Z,23.23
2023-01-03T16:50:02.461Z,18.83
2023-01-03T16:52:34.083Z,19.63
2023-01-03T16:55:03.924Z,15.35
2023-01-03T16:57:31.821Z,29.27
2023-01-03T16:59:59.151Z,14.80
2023-01-03T17:02:26.582Z,12.73
2023-01-03T17:04:53.943Z,18.35
2023-01-03T17:07:23.015Z,15.60
2023-01-03T17:09:51.764Z,14.55
2023-01-03T17:12:22.596Z,12.98
2023-01-03T17:14:50.246Z,13.40
2023-01-03T17:17:18.818Z,11.68
2023-01-03T17:22:33.479Z,12.65
2023-01-03T17:25:00.727Z,13.70
2023-01-03T17:27:32.349Z,20.08
2023-01-03T17:30:01.990Z,19.23
2023-01-03T17:32:30.093Z,17.98
2023-01-03T17:34:57.683Z,17.77
2023-01-03T17:37:25.604Z,16.45
2023-01-03T17:39:57.552Z,18.17
2023-01-03T17:42:25.678Z,17.27
2023-01-03T17:45:11.974Z,15.35
2023-01-03T17:47:59.087Z,11.77
2023-01-03T17:50:26.583Z,14.68
2023-01-03T17:52:56.372Z,19.92
2023-01-03T17:55:25.256Z,19.65
2023-01-03T17:57:52.836Z,17.00
2023-01-03T18:00:21.852Z,22.15
2023-01-03T18:02:49.582Z,18.92
2023-01-03T18:05:26.132Z,15.18
2023-01-03T18:07:54.535Z,17.55
2023-01-03T18:10:33.617Z,19.42
2023-01-03T18:13:00.969Z,18.73
2023-01-03T18:15:28.194Z,20.95
2023-01-03T18:17:55.541Z,16.00
2023-01-03T18:20:25.962Z,14.07
2023-01-03T18:22:53.467Z,14.38
2023-01-03T18:25:25.535Z,14.57
2023-01-03T18:28:00.754Z,13.63
2023-01-03T18:30:28.764Z,12.30
2023-01-03T18:32:56.052Z,20.40
2023-01-03T18:35:29.586Z,16.05
2023-01-03T18:38:01.518Z,14.18
2023-01-03T18:40:29.173Z,12.23
2023-01-03T18:43:08.700Z,16.13
2023-01-03T18:45:36.787Z,16.98
2023-01-03T18:48:04.433Z,14.75
2023-01-03T18:50:31.814Z,16.70
2023-01-03T18:53:04.316Z,12.80
2023-01-03T18:55:33.728Z,18.30
2023-01-03T19:00:28.250Z,16.10
2023-01-03T19:02:55.856Z,14.10
2023-01-03T19:05:23.491Z,16.38
2023-01-03T19:07:52.800Z,15.80
2023-01-03T19:12:48.067Z,18.63
2023-01-03T19:15:26.018Z,19.92
2023-01-03T19:17:53.366Z,17.83
2023-01-03T19:20:26.502Z,17.45
2023-01-03T19:22:54.577Z,18.05
2023-01-03T19:25:26.839Z,22.33
2023-01-03T19:27:56.322Z,31.30
2023-01-03T19:30:38.206Z,22.42
2023-01-03T19:33:06.731Z,16.33
2023-01-03T19:35:34.531Z,18.63
2023-01-03T19:38:01.826Z,17.83
2023-01-03T19:40:31.060Z,21.38
2023-01-03T19:42:59.543Z,17.38
2023-01-03T19:45:28.628Z,12.70
2023-01-03T19:47:56.405Z,16.48
2023-01-03T19:50:28.239Z,14.32
2023-01-03T19:52:55.833Z,14.07
2023-01-03T19:55:28.365Z,16.70
2023-01-03T19:57:55.927Z,12.68
2023-01-03T20:00:25.349Z,17.75
2023-01-03T20:05:21.639Z,12.63
2023-01-03T20:07:49.751Z,23.33
2023-01-03T20:10:22.021Z,15.05
2023-01-03T20:12:50.181Z,13.90
2023-01-03T20:15:27.759Z,17.85
2023-01-03T20:17:55.354Z,21.15
2023-01-03T20:20:24.037Z,11.40
2023-01-03T20:23:04.566Z,13.18
2023-01-03T20:25:33.332Z,14.32
2023-01-03T20:28:01.824Z,13.25
2023-01-03T20:33:32.199Z,16.13
2023-01-03T20:36:12.531Z,14.38
2023-01-03T20:38:44.247Z,16.48
2023-01-03T20:41:15.353Z,11.40
2023-01-03T20:43:43.840Z,15.55
2023-01-03T20:46:20.000Z,11.40
2023-01-03T20:48:51.003Z,13.98
2023-01-03T20:51:18.335Z,13.70
2023-01-03T20:53:50.523Z,15.35
2023-01-03T20:56:21.371Z,14.25
2023-01-03T20:58:49.154Z,16.48
2023-01-03T21:01:16.564Z,10.27
2023-01-03T21:03:44.370Z,11.18
2023-01-03T21:06:24.390Z,11.88
2023-01-03T21:08:55.139Z,11.15
2023-01-03T21:11:29.982Z,14.95
2023-01-03T21:13:58.211Z,8.48
2023-01-03T21:16:30.272Z,12.82
2023-01-03T21:19:02.059Z,6.97
2023-01-03T21:21:30.465Z,8.77
2023-01-03T21:23:58.034Z,12.80
2023-01-03T21:26:25.315Z,9.90
2023-01-03T21:28:52.601Z,11.55
2023-01-03T21:31:21.932Z,9.60
2023-01-03T21:33:49.643Z,19.38
2023-01-03T21:36:36.408Z,14.57
2023-01-03T21:39:04.442Z,8.45
2023-01-03T21:41:33.106Z,9.02
2023-01-03T21:44:03.370Z,8.02
2023-01-03T21:46:31.301Z,7.88
2023-01-03T21:48:58.620Z,12.57
2023-01-03T21:51:41.606Z,12.07
2023-01-03T21:54:09.376Z,15.35
2023-01-03T21:56:45.365Z,9.75
2023-01-03T21:59:16.843Z,14.40
2023-01-03T22:02:03.232Z,6.18
2023-01-03T22:04:31.002Z,12.23
2023-01-03T22:07:01.779Z,11.25
2023-01-03T22:09:49.165Z,10.88
2023-01-03T22:12:16.742Z,11.98
2023-01-03T22:14:44.918Z,9.00
2023-01-03T22:17:12.247Z,10.25
2023-01-03T22:19:39.593Z,10.00
2023-01-03T22:22:06.893Z,9.18
2023-01-03T22:24:34.237Z,12.30
2023-01-03T22:27:01.539Z,10.18
2023-01-03T22:29:28.891Z,14.38
2023-01-03T22:31:56.368Z,8.65
2023-01-03T22:34:23.820Z,11.65
2023-01-03T22:36:55.132Z,9.70
2023-01-03T22:39:22.394Z,9.40
2023-01-03T22:41:49.670Z,8.73
2023-01-03T22:44:16.955Z,7.65
2023-01-03T22:46:44.164Z,12.48
2023-01-03T22:49:11.495Z,11.25
2023-01-03T22:51:38.818Z,9.93
2023-01-03T22:54:06.283Z,9.05
2023-01-03T22:56:33.538Z,7.85
2023-01-03T22:59:01.938Z,7.57
2023-01-03T23:01:29.527Z,11.53
2023-01-03T23:04:00.249Z,11.38
2023-01-03T23:06:29.268Z,16.73
2023-01-03T23:08:59.895Z,8.98
2023-01-03T23:11:47.252Z,12.75
2023-01-03T23:14:19.388Z,15.80
2023-01-03T23:16:47.520Z,8.70
2023-01-03T23:19:16.033Z,12.18
2023-01-03T23:21:45.389Z,13.27
2023-01-03T23:24:17.604Z,8.98
2023-01-03T23:26:45.523Z,9.48
2023-01-03T23:29:14.484Z,15.77
2023-01-03T23:31:42.407Z,13.07
2023-01-03T23:34:10.880Z,8.70
2023-01-03T23:36:38.220Z,8.10
2023-01-03T23:39:05.669Z,10.57
2023-01-03T23:41:34.519Z,7.88
2023-01-03T23:44:01.827Z,10.45
2023-01-03T23:46:29.199Z,18.42
2023-01-03T23:48:57.233Z,11.27
2023-01-03T23:51:24.917Z,10.98
2023-01-03T23:53:52.671Z,9.75
2023-01-03T23:56:20.936Z,10.55
2023-01-03T23:58:48.433Z,12.70
